Aviation Digital Data Service (ADDS)

Output produced by METARs form (0800 UTC 19 April 2014)
found at http://aviationweather.gov/adds/metars/
 
KLEB 190534Z 1906/2006 VRB03KT P6SM BKN090 
     TEMPO 1907/1910 -SHRASN 
     FM191400 32015G25KT P6SM SCT050 
     FM192300 34006KT P6SM SKC